Terminal Aerodrome Forecast
Issued by NWS

Home | Current Version | Previous Version | Text Only | Print | Product List | Glossary On
Versions: 1 2 3 4 5 6 7 8 9 10 11 12 13
000
FTUS46 KLOX 230004 RRA
TAFOXR
TAF
KOXR 230004Z 2300/2324 27017G25KT P6SM FEW025 SCT050
     FM230400 29014G22KT P6SM SCT025 SCT050
     FM231000 32010KT P6SM FEW050
     FM232000 28017G25KT P6SM SKC=

USA.gov is the U.S. government's official web portal to all federal, state and local government web resources and services.